sensor_id;sensor_type;location;lat;lon;timestamp;P1;durP1;ratioP1;P2;durP2;ratioP2
7661;SDS011;30314;48.184;11.510;2024-02-16T00:01:41;4.87;;;3.73;;
7661;SDS011;30314;48.184;11.510;2024-02-16T00:04:07;7.33;;;4.00;;
7661;SDS011;30314;48.184;11.510;2024-02-16T00:06:34;8.20;;;4.30;;
7661;SDS011;30314;48.184;11.510;2024-02-16T00:09:01;6.47;;;4.40;;
7661;SDS011;30314;48.184;11.510;2024-02-16T00:11:28;9.20;;;4.13;;
7661;SDS011;30314;48.184;11.510;2024-02-16T00:13:55;6.73;;;3.63;;
7661;SDS011;30314;48.184;11.510;2024-02-16T00:16:22;5.63;;;3.80;;
7661;SDS011;30314;48.184;11.510;2024-02-16T00:18:48;6.80;;;4.00;;
7661;SDS011;30314;48.184;11.510;2024-02-16T00:21:15;5.93;;;3.33;;
7661;SDS011;30314;48.184;11.510;2024-02-16T00:23:43;8.47;;;4.20;;
7661;SDS011;30314;48.184;11.510;2024-02-16T00:26:11;7.50;;;4.20;;
7661;SDS011;30314;48.184;11.510;2024-02-16T00:28:37;10.10;;;3.83;;
7661;SDS011;30314;48.184;11.510;2024-02-16T00:31:04;9.83;;;3.90;;
7661;SDS011;30314;48.184;11.510;2024-02-16T00:33:32;6.30;;;3.40;;
7661;SDS011;30314;48.184;11.510;2024-02-16T00:36:00;5.30;;;3.03;;
7661;SDS011;30314;48.184;11.510;2024-02-16T00:38:27;5.73;;;3.97;;
7661;SDS011;30314;48.184;11.510;2024-02-16T00:40:53;8.93;;;3.80;;
7661;SDS011;30314;48.184;11.510;2024-02-16T00:43:20;5.63;;;3.80;;
7661;SDS011;30314;48.184;11.510;2024-02-16T00:45:46;7.43;;;3.93;;
7661;SDS011;30314;48.184;11.510;2024-02-16T00:48:14;6.43;;;3.47;;
7661;SDS011;30314;48.184;11.510;2024-02-16T00:50:41;5.47;;;3.40;;
7661;SDS011;30314;48.184;11.510;2024-02-16T00:53:09;14.60;;;3.77;;
7661;SDS011;30314;48.184;11.510;2024-02-16T00:55:36;4.73;;;3.30;;
7661;SDS011;30314;48.184;11.510;2024-02-16T00:58:03;7.47;;;4.00;;
7661;SDS011;30314;48.184;11.510;2024-02-16T01:00:31;6.03;;;3.30;;
7661;SDS011;30314;48.184;11.510;2024-02-16T01:02:58;6.50;;;3.53;;
7661;SDS011;30314;48.184;11.510;2024-02-16T01:05:24;4.80;;;3.23;;
7661;SDS011;30314;48.184;11.510;2024-02-16T01:07:51;8.77;;;4.53;;
7661;SDS011;30314;48.184;11.510;2024-02-16T01:10:18;4.83;;;3.67;;
7661;SDS011;30314;48.184;11.510;2024-02-16T01:12:45;9.57;;;4.00;;
7661;SDS011;30314;48.184;11.510;2024-02-16T01:15:12;5.47;;;3.67;;
7661;SDS011;30314;48.184;11.510;2024-02-16T01:17:38;7.20;;;4.20;;
7661;SDS011;30314;48.184;11.510;2024-02-16T01:20:06;7.17;;;3.93;;
7661;SDS011;30314;48.184;11.510;2024-02-16T01:22:38;6.20;;;3.97;;
7661;SDS011;30314;48.184;11.510;2024-02-16T01:25:06;7.43;;;3.63;;
7661;SDS011;30314;48.184;11.510;2024-02-16T01:27:35;8.77;;;4.40;;
7661;SDS011;30314;48.184;11.510;2024-02-16T01:30:02;7.20;;;4.43;;
7661;SDS011;30314;48.184;11.510;2024-02-16T01:32:30;6.03;;;4.00;;
7661;SDS011;30314;48.184;11.510;2024-02-16T01:34:56;5.87;;;3.80;;
7661;SDS011;30314;48.184;11.510;2024-02-16T01:37:24;6.70;;;4.57;;
7661;SDS011;30314;48.184;11.510;2024-02-16T01:39:51;7.80;;;4.03;;
7661;SDS011;30314;48.184;11.510;2024-02-16T01:42:19;7.87;;;4.10;;
7661;SDS011;30314;48.184;11.510;2024-02-16T01:44:45;7.00;;;3.23;;
7661;SDS011;30314;48.184;11.510;2024-02-16T01:47:12;5.43;;;3.80;;
7661;SDS011;30314;48.184;11.510;2024-02-16T01:49:39;6.03;;;4.23;;
7661;SDS011;30314;48.184;11.510;2024-02-16T01:52:05;8.63;;;4.50;;
7661;SDS011;30314;48.184;11.510;2024-02-16T01:54:32;7.63;;;4.00;;
7661;SDS011;30314;48.184;11.510;2024-02-16T01:56:59;7.30;;;3.77;;
7661;SDS011;30314;48.184;11.510;2024-02-16T01:59:28;6.13;;;3.40;;
7661;SDS011;30314;48.184;11.510;2024-02-16T02:01:55;9.00;;;4.10;;
7661;SDS011;30314;48.184;11.510;2024-02-16T02:04:22;4.67;;;3.07;;
7661;SDS011;30314;48.184;11.510;2024-02-16T02:06:49;6.80;;;3.77;;
7661;SDS011;30314;48.184;11.510;2024-02-16T02:09:16;8.27;;;4.03;;
7661;SDS011;30314;48.184;11.510;2024-02-16T02:11:43;8.00;;;4.13;;
7661;SDS011;30314;48.184;11.510;2024-02-16T02:14:10;4.60;;;3.17;;
7661;SDS011;30314;48.184;11.510;2024-02-16T02:16:37;7.10;;;4.20;;
7661;SDS011;30314;48.184;11.510;2024-02-16T02:19:20;5.93;;;3.47;;
7661;SDS011;30314;48.184;11.510;2024-02-16T02:21:47;6.23;;;3.70;;
7661;SDS011;30314;48.184;11.510;2024-02-16T02:24:13;5.33;;;3.70;;
7661;SDS011;30314;48.184;11.510;2024-02-16T02:26:40;5.03;;;3.57;;
7661;SDS011;30314;48.184;11.510;2024-02-16T02:29:06;7.30;;;5.00;;
7661;SDS011;30314;48.184;11.510;2024-02-16T02:31:33;9.00;;;4.07;;
7661;SDS011;30314;48.184;11.510;2024-02-16T02:33:59;4.83;;;3.33;;
7661;SDS011;30314;48.184;11.510;2024-02-16T02:36:26;5.23;;;3.90;;
7661;SDS011;30314;48.184;11.510;2024-02-16T02:38:53;5.10;;;3.50;;
7661;SDS011;30314;48.184;11.510;2024-02-16T02:41:20;6.53;;;3.63;;
7661;SDS011;30314;48.184;11.510;2024-02-16T02:43:46;9.13;;;4.37;;
7661;SDS011;30314;48.184;11.510;2024-02-16T02:46:16;6.97;;;3.77;;
7661;SDS011;30314;48.184;11.510;2024-02-16T02:48:46;8.67;;;4.20;;
7661;SDS011;30314;48.184;11.510;2024-02-16T02:51:18;6.40;;;4.10;;
7661;SDS011;30314;48.184;11.510;2024-02-16T02:53:57;6.90;;;4.37;;
7661;SDS011;30314;48.184;11.510;2024-02-16T02:56:23;7.50;;;5.20;;
7661;SDS011;30314;48.184;11.510;2024-02-16T02:58:50;9.20;;;5.30;;
7661;SDS011;30314;48.184;11.510;2024-02-16T03:01:17;8.43;;;5.23;;
7661;SDS011;30314;48.184;11.510;2024-02-16T03:03:46;11.00;;;4.53;;
7661;SDS011;30314;48.184;11.510;2024-02-16T03:06:16;9.63;;;4.80;;
7661;SDS011;30314;48.184;11.510;2024-02-16T03:08:44;10.27;;;4.60;;
7661;SDS011;30314;48.184;11.510;2024-02-16T03:11:11;11.50;;;4.90;;
7661;SDS011;30314;48.184;11.510;2024-02-16T03:13:37;8.70;;;4.23;;
7661;SDS011;30314;48.184;11.510;2024-02-16T03:16:04;7.50;;;4.43;;
7661;SDS011;30314;48.184;11.510;2024-02-16T03:18:31;11.20;;;4.70;;
7661;SDS011;30314;48.184;11.510;2024-02-16T03:21:01;6.03;;;4.27;;
7661;SDS011;30314;48.184;11.510;2024-02-16T03:23:28;6.07;;;4.30;;
7661;SDS011;30314;48.184;11.510;2024-02-16T03:25:55;6.10;;;3.53;;
7661;SDS011;30314;48.184;11.510;2024-02-16T03:28:21;7.40;;;4.50;;
7661;SDS011;30314;48.184;11.510;2024-02-16T03:30:48;8.40;;;4.30;;
7661;SDS011;30314;48.184;11.510;2024-02-16T03:33:14;7.93;;;4.47;;
7661;SDS011;30314;48.184;11.510;2024-02-16T03:35:41;8.10;;;4.23;;
7661;SDS011;30314;48.184;11.510;2024-02-16T03:38:07;10.30;;;5.37;;
7661;SDS011;30314;48.184;11.510;2024-02-16T03:40:34;7.97;;;5.30;;
7661;SDS011;30314;48.184;11.510;2024-02-16T03:43:01;5.40;;;4.30;;
7661;SDS011;30314;48.184;11.510;2024-02-16T03:45:27;7.40;;;3.80;;
7661;SDS011;30314;48.184;11.510;2024-02-16T03:47:55;8.83;;;3.90;;
7661;SDS011;30314;48.184;11.510;2024-02-16T03:50:22;8.93;;;4.10;;
7661;SDS011;30314;48.184;11.510;2024-02-16T03:52:49;7.53;;;3.80;;
7661;SDS011;30314;48.184;11.510;2024-02-16T03:55:15;5.50;;;3.60;;
7661;SDS011;30314;48.184;11.510;2024-02-16T03:57:42;8.80;;;3.80;;
7661;SDS011;30314;48.184;11.510;2024-02-16T04:00:09;8.53;;;3.53;;
7661;SDS011;30314;48.184;11.510;2024-02-16T04:02:40;11.23;;;3.97;;
7661;SDS011;30314;48.184;11.510;2024-02-16T04:05:06;7.70;;;3.97;;
7661;SDS011;30314;48.184;11.510;2024-02-16T04:07:35;9.67;;;3.83;;
7661;SDS011;30314;48.184;11.510;2024-02-16T04:10:02;6.53;;;3.30;;
7661;SDS011;30314;48.184;11.510;2024-02-16T04:12:29;7.80;;;3.20;;
7661;SDS011;30314;48.184;11.510;2024-02-16T04:14:56;5.67;;;3.27;;
7661;SDS011;30314;48.184;11.510;2024-02-16T04:17:23;5.60;;;3.60;;
7661;SDS011;30314;48.184;11.510;2024-02-16T04:19:50;9.00;;;4.00;;
7661;SDS011;30314;48.184;11.510;2024-02-16T04:22:17;7.73;;;3.47;;
7661;SDS011;30314;48.184;11.510;2024-02-16T04:24:43;5.27;;;3.33;;
7661;SDS011;30314;48.184;11.510;2024-02-16T04:27:10;10.47;;;4.07;;
7661;SDS011;30314;48.184;11.510;2024-02-16T04:29:36;5.03;;;3.40;;
7661;SDS011;30314;48.184;11.510;2024-02-16T04:32:03;7.07;;;3.47;;
7661;SDS011;30314;48.184;11.510;2024-02-16T04:34:30;5.17;;;2.90;;
7661;SDS011;30314;48.184;11.510;2024-02-16T04:36:57;7.90;;;4.27;;
7661;SDS011;30314;48.184;11.510;2024-02-16T04:39:23;8.20;;;4.33;;
7661;SDS011;30314;48.184;11.510;2024-02-16T04:41:50;6.80;;;3.77;;
7661;SDS011;30314;48.184;11.510;2024-02-16T04:44:18;8.37;;;4.00;;
7661;SDS011;30314;48.184;11.510;2024-02-16T04:46:45;8.43;;;3.93;;
7661;SDS011;30314;48.184;11.510;2024-02-16T04:49:11;6.13;;;3.00;;
7661;SDS011;30314;48.184;11.510;2024-02-16T04:51:39;8.83;;;3.53;;
7661;SDS011;30314;48.184;11.510;2024-02-16T04:54:06;5.07;;;2.80;;
7661;SDS011;30314;48.184;11.510;2024-02-16T04:56:33;4.67;;;2.60;;
7661;SDS011;30314;48.184;11.510;2024-02-16T04:59:00;3.97;;;2.27;;
7661;SDS011;30314;48.184;11.510;2024-02-16T05:01:26;4.30;;;2.70;;
7661;SDS011;30314;48.184;11.510;2024-02-16T05:03:55;6.10;;;3.10;;
7661;SDS011;30314;48.184;11.510;2024-02-16T05:06:22;4.13;;;2.93;;
7661;SDS011;30314;48.184;11.510;2024-02-16T05:08:49;5.50;;;3.33;;
7661;SDS011;30314;48.184;11.510;2024-02-16T05:11:16;6.67;;;3.30;;
7661;SDS011;30314;48.184;11.510;2024-02-16T05:13:43;3.70;;;2.60;;
7661;SDS011;30314;48.184;11.510;2024-02-16T05:16:10;6.47;;;3.90;;
7661;SDS011;30314;48.184;11.510;2024-02-16T05:18:38;5.00;;;3.13;;
7661;SDS011;30314;48.184;11.510;2024-02-16T05:21:05;6.13;;;3.70;;
7661;SDS011;30314;48.184;11.510;2024-02-16T05:23:32;6.47;;;3.00;;
7661;SDS011;30314;48.184;11.510;2024-02-16T05:25:58;4.40;;;2.90;;
7661;SDS011;30314;48.184;11.510;2024-02-16T05:28:25;9.17;;;3.50;;
7661;SDS011;30314;48.184;11.510;2024-02-16T05:30:52;4.63;;;2.70;;
7661;SDS011;30314;48.184;11.510;2024-02-16T05:33:18;5.17;;;2.70;;
7661;SDS011;30314;48.184;11.510;2024-02-16T05:35:45;4.80;;;2.73;;
7661;SDS011;30314;48.184;11.510;2024-02-16T05:38:17;5.87;;;3.00;;
7661;SDS011;30314;48.184;11.510;2024-02-16T05:40:58;4.70;;;2.63;;
7661;SDS011;30314;48.184;11.510;2024-02-16T05:43:25;3.80;;;2.10;;
7661;SDS011;30314;48.184;11.510;2024-02-16T05:45:51;8.53;;;2.70;;
7661;SDS011;30314;48.184;11.510;2024-02-16T05:48:18;5.27;;;3.27;;
7661;SDS011;30314;48.184;11.510;2024-02-16T05:50:46;5.67;;;2.70;;
7661;SDS011;30314;48.184;11.510;2024-02-16T05:53:13;4.63;;;2.47;;
7661;SDS011;30314;48.184;11.510;2024-02-16T05:55:39;4.43;;;2.57;;
7661;SDS011;30314;48.184;11.510;2024-02-16T05:58:06;3.80;;;2.60;;
7661;SDS011;30314;48.184;11.510;2024-02-16T06:00:33;4.53;;;2.83;;
7661;SDS011;30314;48.184;11.510;2024-02-16T06:03:01;7.77;;;3.27;;
7661;SDS011;30314;48.184;11.510;2024-02-16T06:05:28;11.70;;;3.30;;
7661;SDS011;30314;48.184;11.510;2024-02-16T06:07:55;5.10;;;3.37;;
7661;SDS011;30314;48.184;11.510;2024-02-16T06:10:23;5.03;;;2.53;;
7661;SDS011;30314;48.184;11.510;2024-02-16T06:12:50;7.53;;;2.67;;
7661;SDS011;30314;48.184;11.510;2024-02-16T06:15:17;5.07;;;3.43;;
7661;SDS011;30314;48.184;11.510;2024-02-16T06:17:43;4.60;;;3.07;;
7661;SDS011;30314;48.184;11.510;2024-02-16T06:20:10;5.00;;;2.77;;
7661;SDS011;30314;48.184;11.510;2024-02-16T06:22:37;6.97;;;4.00;;
7661;SDS011;30314;48.184;11.510;2024-02-16T06:25:04;4.17;;;2.83;;
7661;SDS011;30314;48.184;11.510;2024-02-16T06:27:31;6.73;;;2.67;;
7661;SDS011;30314;48.184;11.510;2024-02-16T06:29:59;7.53;;;2.47;;
7661;SDS011;30314;48.184;11.510;2024-02-16T06:32:25;6.47;;;2.90;;
7661;SDS011;30314;48.184;11.510;2024-02-16T06:34:52;3.97;;;2.30;;
7661;SDS011;30314;48.184;11.510;2024-02-16T06:37:19;7.70;;;3.23;;
7661;SDS011;30314;48.184;11.510;2024-02-16T06:39:46;4.67;;;2.50;;
7661;SDS011;30314;48.184;11.510;2024-02-16T06:42:13;4.73;;;2.80;;
7661;SDS011;30314;48.184;11.510;2024-02-16T06:44:40;5.00;;;2.30;;
7661;SDS011;30314;48.184;11.510;2024-02-16T06:47:07;4.33;;;2.03;;
7661;SDS011;30314;48.184;11.510;2024-02-16T06:49:33;5.60;;;2.40;;
7661;SDS011;30314;48.184;11.510;2024-02-16T06:52:00;5.83;;;2.43;;
7661;SDS011;30314;48.184;11.510;2024-02-16T06:54:26;6.07;;;3.27;;
7661;SDS011;30314;48.184;11.510;2024-02-16T06:56:53;5.90;;;3.20;;
7661;SDS011;30314;48.184;11.510;2024-02-16T06:59:20;5.90;;;2.50;;
7661;SDS011;30314;48.184;11.510;2024-02-16T07:01:46;4.90;;;2.90;;
7661;SDS011;30314;48.184;11.510;2024-02-16T07:04:13;4.23;;;2.90;;
7661;SDS011;30314;48.184;11.510;2024-02-16T07:06:41;4.73;;;3.00;;
7661;SDS011;30314;48.184;11.510;2024-02-16T07:09:07;4.90;;;2.43;;
7661;SDS011;30314;48.184;11.510;2024-02-16T07:11:34;3.67;;;2.40;;
7661;SDS011;30314;48.184;11.510;2024-02-16T07:14:01;5.10;;;3.00;;
7661;SDS011;30314;48.184;11.510;2024-02-16T07:16:28;11.17;;;3.20;;
7661;SDS011;30314;48.184;11.510;2024-02-16T07:18:55;10.20;;;3.37;;
7661;SDS011;30314;48.184;11.510;2024-02-16T07:21:22;6.30;;;3.10;;
7661;SDS011;30314;48.184;11.510;2024-02-16T07:23:49;4.17;;;3.03;;
7661;SDS011;30314;48.184;11.510;2024-02-16T07:26:17;4.33;;;2.50;;
7661;SDS011;30314;48.184;11.510;2024-02-16T07:28:44;7.90;;;3.37;;
7661;SDS011;30314;48.184;11.510;2024-02-16T07:31:11;5.90;;;2.77;;
7661;SDS011;30314;48.184;11.510;2024-02-16T07:33:38;6.83;;;2.90;;
7661;SDS011;30314;48.184;11.510;2024-02-16T07:36:04;7.70;;;3.53;;
7661;SDS011;30314;48.184;11.510;2024-02-16T07:38:31;7.37;;;3.63;;
7661;SDS011;30314;48.184;11.510;2024-02-16T07:40:58;5.23;;;3.80;;
7661;SDS011;30314;48.184;11.510;2024-02-16T07:43:26;11.23;;;3.93;;
7661;SDS011;30314;48.184;11.510;2024-02-16T07:45:53;6.33;;;2.90;;
7661;SDS011;30314;48.184;11.510;2024-02-16T07:48:20;9.30;;;4.20;;
7661;SDS011;30314;48.184;11.510;2024-02-16T07:50:48;6.43;;;3.43;;
7661;SDS011;30314;48.184;11.510;2024-02-16T07:53:16;5.13;;;3.17;;
7661;SDS011;30314;48.184;11.510;2024-02-16T07:55:43;6.70;;;3.60;;
7661;SDS011;30314;48.184;11.510;2024-02-16T07:58:10;5.27;;;2.83;;
7661;SDS011;30314;48.184;11.510;2024-02-16T08:00:36;4.83;;;2.60;;
7661;SDS011;30314;48.184;11.510;2024-02-16T08:03:03;8.17;;;2.87;;
7661;SDS011;30314;48.184;11.510;2024-02-16T08:05:30;6.73;;;2.90;;
7661;SDS011;30314;48.184;11.510;2024-02-16T08:07:57;9.27;;;3.10;;
7661;SDS011;30314;48.184;11.510;2024-02-16T08:10:24;5.57;;;3.33;;
7661;SDS011;30314;48.184;11.510;2024-02-16T08:12:51;5.67;;;2.47;;
7661;SDS011;30314;48.184;11.510;2024-02-16T08:15:19;6.17;;;2.60;;
7661;SDS011;30314;48.184;11.510;2024-02-16T08:17:50;3.87;;;2.53;;
7661;SDS011;30314;48.184;11.510;2024-02-16T08:20:17;12.37;;;3.17;;
7661;SDS011;30314;48.184;11.510;2024-02-16T08:22:44;8.87;;;2.50;;
7661;SDS011;30314;48.184;11.510;2024-02-16T08:25:11;3.87;;;1.93;;
7661;SDS011;30314;48.184;11.510;2024-02-16T08:27:38;6.53;;;3.17;;
7661;SDS011;30314;48.184;11.510;2024-02-16T08:30:06;6.77;;;3.13;;
7661;SDS011;30314;48.184;11.510;2024-02-16T08:32:33;4.60;;;2.80;;
7661;SDS011;30314;48.184;11.510;2024-02-16T08:34:59;5.73;;;2.70;;
7661;SDS011;30314;48.184;11.510;2024-02-16T08:37:26;6.90;;;2.30;;
7661;SDS011;30314;48.184;11.510;2024-02-16T08:39:53;4.77;;;2.57;;
7661;SDS011;30314;48.184;11.510;2024-02-16T08:42:20;24.90;;;3.57;;
7661;SDS011;30314;48.184;11.510;2024-02-16T08:44:49;7.90;;;2.47;;
7661;SDS011;30314;48.184;11.510;2024-02-16T08:47:16;9.53;;;3.17;;
7661;SDS011;30314;48.184;11.510;2024-02-16T08:49:42;13.30;;;3.23;;
7661;SDS011;30314;48.184;11.510;2024-02-16T08:52:09;4.77;;;2.47;;
7661;SDS011;30314;48.184;11.510;2024-02-16T08:54:35;8.00;;;2.40;;
7661;SDS011;30314;48.184;11.510;2024-02-16T08:57:03;4.40;;;2.03;;
7661;SDS011;30314;48.184;11.510;2024-02-16T08:59:30;5.83;;;2.37;;
7661;SDS011;30314;48.184;11.510;2024-02-16T09:01:56;3.90;;;2.00;;
7661;SDS011;30314;48.184;11.510;2024-02-16T09:04:25;10.83;;;2.40;;
7661;SDS011;30314;48.184;11.510;2024-02-16T09:06:51;15.53;;;2.63;;
7661;SDS011;30314;48.184;11.510;2024-02-16T09:09:20;4.73;;;2.10;;
7661;SDS011;30314;48.184;11.510;2024-02-16T09:11:46;5.47;;;2.70;;
7661;SDS011;30314;48.184;11.510;2024-02-16T09:14:13;5.70;;;2.30;;
7661;SDS011;30314;48.184;11.510;2024-02-16T09:16:40;5.63;;;2.10;;
7661;SDS011;30314;48.184;11.510;2024-02-16T09:19:06;8.10;;;2.30;;
7661;SDS011;30314;48.184;11.510;2024-02-16T09:21:33;3.40;;;2.00;;
7661;SDS011;30314;48.184;11.510;2024-02-16T09:24:00;5.87;;;1.60;;
7661;SDS011;30314;48.184;11.510;2024-02-16T09:26:28;4.73;;;2.07;;
7661;SDS011;30314;48.184;11.510;2024-02-16T09:29:00;9.70;;;2.50;;
7661;SDS011;30314;48.184;11.510;2024-02-16T09:31:26;9.10;;;2.33;;
7661;SDS011;30314;48.184;11.510;2024-02-16T09:33:53;2.50;;;1.70;;
7661;SDS011;30314;48.184;11.510;2024-02-16T09:36:20;6.40;;;2.30;;
7661;SDS011;30314;48.184;11.510;2024-02-16T09:38:47;6.37;;;1.77;;
7661;SDS011;30314;48.184;11.510;2024-02-16T09:41:14;4.70;;;1.43;;
7661;SDS011;30314;48.184;11.510;2024-02-16T09:43:42;2.47;;;1.40;;
7661;SDS011;30314;48.184;11.510;2024-02-16T09:46:09;5.90;;;1.87;;
7661;SDS011;30314;48.184;11.510;2024-02-16T09:48:36;3.00;;;1.30;;
7661;SDS011;30314;48.184;11.510;2024-02-16T09:51:06;4.40;;;1.63;;
7661;SDS011;30314;48.184;11.510;2024-02-16T09:53:33;5.10;;;1.43;;
7661;SDS011;30314;48.184;11.510;2024-02-16T09:55:59;4.80;;;1.13;;
7661;SDS011;30314;48.184;11.510;2024-02-16T09:58:28;2.07;;;1.10;;
7661;SDS011;30314;48.184;11.510;2024-02-16T10:00:55;1.53;;;0.90;;
7661;SDS011;30314;48.184;11.510;2024-02-16T10:05:52;2.53;;;1.43;;
7661;SDS011;30314;48.184;11.510;2024-02-16T10:08:30;3.70;;;0.90;;
7661;SDS011;30314;48.184;11.510;2024-02-16T10:11:09;4.37;;;1.20;;
7661;SDS011;30314;48.184;11.510;2024-02-16T10:18:11;3.83;;;1.10;;
7661;SDS011;30314;48.184;11.510;2024-02-16T10:20:38;3.17;;;0.83;;
7661;SDS011;30314;48.184;11.510;2024-02-16T10:23:11;2.10;;;0.60;;
7661;SDS011;30314;48.184;11.510;2024-02-16T10:26:14;6.67;;;1.10;;
7661;SDS011;30314;48.184;11.510;2024-02-16T10:28:40;4.43;;;0.97;;
7661;SDS011;30314;48.184;11.510;2024-02-16T10:31:09;2.27;;;1.00;;
7661;SDS011;30314;48.184;11.510;2024-02-16T10:33:36;3.50;;;1.20;;
7661;SDS011;30314;48.184;11.510;2024-02-16T10:36:04;3.40;;;1.30;;
7661;SDS011;30314;48.184;11.510;2024-02-16T10:38:34;2.30;;;1.07;;
7661;SDS011;30314;48.184;11.510;2024-02-16T10:41:02;5.07;;;1.73;;
7661;SDS011;30314;48.184;11.510;2024-02-16T10:43:29;4.00;;;1.00;;
7661;SDS011;30314;48.184;11.510;2024-02-16T10:45:56;3.00;;;1.10;;
7661;SDS011;30314;48.184;11.510;2024-02-16T10:48:24;7.00;;;1.80;;
7661;SDS011;30314;48.184;11.510;2024-02-16T10:50:51;4.87;;;2.40;;
7661;SDS011;30314;48.184;11.510;2024-02-16T10:53:26;5.03;;;1.33;;
7661;SDS011;30314;48.184;11.510;2024-02-16T10:55:58;4.10;;;1.30;;
7661;SDS011;30314;48.184;11.510;2024-02-16T10:58:26;3.50;;;1.23;;
7661;SDS011;30314;48.184;11.510;2024-02-16T11:00:54;1.27;;;0.73;;
7661;SDS011;30314;48.184;11.510;2024-02-16T11:03:23;1.60;;;0.80;;
7661;SDS011;30314;48.184;11.510;2024-02-16T11:05:54;2.50;;;0.87;;
7661;SDS011;30314;48.184;11.510;2024-02-16T11:08:23;2.10;;;1.03;;
7661;SDS011;30314;48.184;11.510;2024-02-16T11:10:59;2.10;;;1.00;;
7661;SDS011;30314;48.184;11.510;2024-02-16T11:13:27;3.17;;;1.17;;
7661;SDS011;30314;48.184;11.510;2024-02-16T11:16:01;4.57;;;0.90;;
7661;SDS011;30314;48.184;11.510;2024-02-16T11:18:30;2.73;;;1.20;;
7661;SDS011;30314;48.184;11.510;2024-02-16T11:21:01;2.20;;;1.20;;
7661;SDS011;30314;48.184;11.510;2024-02-16T11:23:32;3.17;;;1.53;;
7661;SDS011;30314;48.184;11.510;2024-02-16T11:26:00;6.20;;;1.40;;
7661;SDS011;30314;48.184;11.510;2024-02-16T11:28:32;2.43;;;1.10;;
7661;SDS011;30314;48.184;11.510;2024-02-16T11:31:01;1.80;;;0.90;;
7661;SDS011;30314;48.184;11.510;2024-02-16T11:33:29;4.10;;;1.77;;
7661;SDS011;30314;48.184;11.510;2024-02-16T11:35:57;3.43;;;1.40;;
7661;SDS011;30314;48.184;11.510;2024-02-16T11:38:25;2.20;;;1.73;;
7661;SDS011;30314;48.184;11.510;2024-02-16T11:41:05;3.17;;;1.33;;
7661;SDS011;30314;48.184;11.510;2024-02-16T11:43:34;3.60;;;1.10;;
7661;SDS011;30314;48.184;11.510;2024-02-16T11:46:11;2.80;;;1.30;;
7661;SDS011;30314;48.184;11.510;2024-02-16T11:48:39;7.63;;;1.33;;
7661;SDS011;30314;48.184;11.510;2024-02-16T11:51:06;2.37;;;1.57;;
7661;SDS011;30314;48.184;11.510;2024-02-16T11:53:32;1.67;;;1.20;;
7661;SDS011;30314;48.184;11.510;2024-02-16T11:56:00;2.60;;;1.70;;
7661;SDS011;30314;48.184;11.510;2024-02-16T11:58:26;2.93;;;1.70;;
7661;SDS011;30314;48.184;11.510;2024-02-16T12:00:54;1.60;;;1.07;;
7661;SDS011;30314;48.184;11.510;2024-02-16T12:03:21;2.73;;;1.00;;
7661;SDS011;30314;48.184;11.510;2024-02-16T12:05:49;2.63;;;1.20;;
7661;SDS011;30314;48.184;11.510;2024-02-16T12:08:20;2.83;;;1.30;;
7661;SDS011;30314;48.184;11.510;2024-02-16T12:10:48;7.80;;;1.73;;
7661;SDS011;30314;48.184;11.510;2024-02-16T12:13:16;3.23;;;1.37;;
7661;SDS011;30314;48.184;11.510;2024-02-16T12:15:47;3.70;;;1.07;;
7661;SDS011;30314;48.184;11.510;2024-02-16T12:18:24;5.13;;;1.27;;
7661;SDS011;30314;48.184;11.510;2024-02-16T12:20:59;2.33;;;0.93;;
7661;SDS011;30314;48.184;11.510;2024-02-16T12:23:27;2.93;;;1.40;;
7661;SDS011;30314;48.184;11.510;2024-02-16T12:25:54;5.07;;;1.50;;
7661;SDS011;30314;48.184;11.510;2024-02-16T12:28:23;1.90;;;0.80;;
7661;SDS011;30314;48.184;11.510;2024-02-16T12:30:51;1.77;;;1.00;;
7661;SDS011;30314;48.184;11.510;2024-02-16T12:33:18;2.60;;;1.10;;
7661;SDS011;30314;48.184;11.510;2024-02-16T12:35:45;3.40;;;0.97;;
7661;SDS011;30314;48.184;11.510;2024-02-16T12:38:11;4.20;;;1.20;;
7661;SDS011;30314;48.184;11.510;2024-02-16T12:40:39;2.93;;;1.33;;
7661;SDS011;30314;48.184;11.510;2024-02-16T12:43:06;3.00;;;1.30;;
7661;SDS011;30314;48.184;11.510;2024-02-16T12:45:35;4.23;;;1.50;;
7661;SDS011;30314;48.184;11.510;2024-02-16T12:48:02;3.23;;;1.50;;
7661;SDS011;30314;48.184;11.510;2024-02-16T12:50:30;2.70;;;1.10;;
7661;SDS011;30314;48.184;11.510;2024-02-16T12:52:57;3.73;;;1.07;;
7661;SDS011;30314;48.184;11.510;2024-02-16T12:55:30;2.60;;;1.50;;
7661;SDS011;30314;48.184;11.510;2024-02-16T12:57:57;4.83;;;1.00;;
7661;SDS011;30314;48.184;11.510;2024-02-16T13:00:24;2.30;;;1.10;;
7661;SDS011;30314;48.184;11.510;2024-02-16T13:02:51;4.47;;;1.13;;
7661;SDS011;30314;48.184;11.510;2024-02-16T13:05:18;3.53;;;1.30;;
7661;SDS011;30314;48.184;11.510;2024-02-16T13:07:44;4.50;;;1.47;;
7661;SDS011;30314;48.184;11.510;2024-02-16T13:10:11;4.47;;;1.40;;
7661;SDS011;30314;48.184;11.510;2024-02-16T13:12:38;3.43;;;1.30;;
7661;SDS011;30314;48.184;11.510;2024-02-16T13:15:05;4.20;;;1.20;;
7661;SDS011;30314;48.184;11.510;2024-02-16T13:17:52;3.43;;;1.40;;
7661;SDS011;30314;48.184;11.510;2024-02-16T13:20:19;5.03;;;1.57;;
7661;SDS011;30314;48.184;11.510;2024-02-16T13:22:46;7.63;;;1.93;;
7661;SDS011;30314;48.184;11.510;2024-02-16T13:25:12;4.90;;;1.40;;
7661;SDS011;30314;48.184;11.510;2024-02-16T13:27:39;3.00;;;1.47;;
7661;SDS011;30314;48.184;11.510;2024-02-16T13:30:06;4.20;;;2.00;;
7661;SDS011;30314;48.184;11.510;2024-02-16T13:32:33;2.57;;;1.30;;
7661;SDS011;30314;48.184;11.510;2024-02-16T13:35:03;1.90;;;1.10;;
7661;SDS011;30314;48.184;11.510;2024-02-16T13:37:29;6.27;;;2.20;;
7661;SDS011;30314;48.184;11.510;2024-02-16T13:39:56;3.97;;;1.53;;
7661;SDS011;30314;48.184;11.510;2024-02-16T13:42:22;7.70;;;1.83;;
7661;SDS011;30314;48.184;11.510;2024-02-16T13:44:50;4.73;;;1.27;;
7661;SDS011;30314;48.184;11.510;2024-02-16T13:47:16;3.00;;;1.40;;
7661;SDS011;30314;48.184;11.510;2024-02-16T13:49:45;7.57;;;1.73;;
7661;SDS011;30314;48.184;11.510;2024-02-16T13:52:13;3.40;;;1.50;;
7661;SDS011;30314;48.184;11.510;2024-02-16T13:54:40;2.90;;;1.50;;
7661;SDS011;30314;48.184;11.510;2024-02-16T13:57:07;4.60;;;1.77;;
7661;SDS011;30314;48.184;11.510;2024-02-16T13:59:33;4.77;;;1.83;;
7661;SDS011;30314;48.184;11.510;2024-02-16T14:02:00;4.93;;;1.50;;
7661;SDS011;30314;48.184;11.510;2024-02-16T14:04:27;4.80;;;1.10;;
7661;SDS011;30314;48.184;11.510;2024-02-16T14:06:55;2.50;;;1.50;;
7661;SDS011;30314;48.184;11.510;2024-02-16T14:09:22;5.20;;;1.63;;
7661;SDS011;30314;48.184;11.510;2024-02-16T14:11:59;2.70;;;1.23;;
7661;SDS011;30314;48.184;11.510;2024-02-16T14:14:26;7.17;;;1.90;;
7661;SDS011;30314;48.184;11.510;2024-02-16T14:17:03;4.17;;;1.30;;
7661;SDS011;30314;48.184;11.510;2024-02-16T14:19:30;3.93;;;1.57;;
7661;SDS011;30314;48.184;11.510;2024-02-16T14:21:57;3.10;;;1.30;;
7661;SDS011;30314;48.184;11.510;2024-02-16T14:24:24;3.60;;;1.23;;
7661;SDS011;30314;48.184;11.510;2024-02-16T14:26:51;3.43;;;1.73;;
7661;SDS011;30314;48.184;11.510;2024-02-16T14:29:21;3.80;;;1.40;;
7661;SDS011;30314;48.184;11.510;2024-02-16T14:31:47;2.30;;;1.30;;
7661;SDS011;30314;48.184;11.510;2024-02-16T14:34:15;2.77;;;1.70;;
7661;SDS011;30314;48.184;11.510;2024-02-16T14:36:42;3.07;;;1.20;;
7661;SDS011;30314;48.184;11.510;2024-02-16T14:39:09;3.57;;;1.70;;
7661;SDS011;30314;48.184;11.510;2024-02-16T14:41:38;3.97;;;1.40;;
7661;SDS011;30314;48.184;11.510;2024-02-16T14:44:05;5.23;;;1.57;;
7661;SDS011;30314;48.184;11.510;2024-02-16T14:46:32;5.87;;;1.90;;
7661;SDS011;30314;48.184;11.510;2024-02-16T14:48:58;5.03;;;2.60;;
7661;SDS011;30314;48.184;11.510;2024-02-16T14:51:25;2.10;;;1.23;;
7661;SDS011;30314;48.184;11.510;2024-02-16T14:53:52;6.10;;;1.50;;
7661;SDS011;30314;48.184;11.510;2024-02-16T14:56:19;3.77;;;1.70;;
7661;SDS011;30314;48.184;11.510;2024-02-16T14:58:48;4.47;;;1.87;;